Time;durP1;ratioP1;P1;durP2;ratioP2;P2;SDS_P1;SDS_P2;PMS_P1;PMS_P2;Temp;Humidity;BMP_temperature;BMP_pressure;BME280_temperature;BME280_humidity;BME280_pressure;Samples;Min_cycle;Max_cycle;Signal;HPM_P1;HPM_P2
2023/09/11 00:01:11;;;;;;;18.25;13.27;;;;;;;;;;5055563;28;20028;-65
2023/09/11 00:03:38;;;;;;;16.10;13.15;;;;;;;;;;5057893;28;20036;-65
2023/09/11 00:06:04;;;;;;;17.35;12.95;;;;;;;;;;5058694;28;20037;-65
2023/09/11 00:08:31;;;;;;;18.55;14.25;;;;;;;;;;5058213;28;20028;-65
2023/09/11 00:10:58;;;;;;;17.08;12.27;;;;;;;;;;5074472;28;20158;-65
2023/09/11 00:13:24;;;;;;;17.77;12.45;;;;;;;;;;5058209;28;20059;-65
2023/09/11 00:15:50;;;;;;;17.65;13.45;;;;;;;;;;5057808;28;20028;-65
2023/09/11 00:18:16;;;;;;;19.08;13.02;;;;;;;;;;5058527;28;20024;-65
2023/09/11 00:20:42;;;;;;;16.75;13.25;;;;;;;;;;5058735;28;20028;-65
2023/09/11 00:23:08;;;;;;;16.92;12.30;;;;;;;;;;5059261;28;20040;-65
2023/09/11 00:25:35;;;;;;;18.33;13.00;;;;;;;;;;5056322;28;20047;-65
2023/09/11 00:28:01;;;;;;;17.55;13.23;;;;;;;;;;5057976;28;21407;-65
2023/09/11 00:30:27;;;;;;;19.52;13.82;;;;;;;;;;5057236;28;20032;-65
2023/09/11 00:32:53;;;;;;;17.92;12.90;;;;;;;;;;5057830;28;20033;-65
2023/09/11 00:35:19;;;;;;;19.63;12.75;;;;;;;;;;5058087;28;20036;-65
2023/09/11 00:37:45;;;;;;;25.85;13.55;;;;;;;;;;5057712;28;20159;-65
2023/09/11 00:40:11;;;;;;;23.98;13.68;;;;;;;;;;5057541;28;20036;-65
2023/09/11 00:42:37;;;;;;;17.50;12.48;;;;;;;;;;5057882;28;20139;-65
2023/09/11 00:45:03;;;;;;;20.77;13.75;;;;;;;;;;5057678;28;20039;-65
2023/09/11 00:47:30;;;;;;;22.17;12.82;;;;;;;;;;5056725;28;20533;-65
2023/09/11 00:50:00;;;;;;;21.10;14.13;;;;;;;;;;5055433;28;20040;-65
2023/09/11 00:52:28;;;;;;;18.83;13.23;;;;;;;;;;5057985;28;20036;-64
2023/09/11 00:54:55;;;;;;;15.15;11.20;;;;;;;;;;5058031;28;20119;-65
2023/09/11 00:57:22;;;;;;;17.83;12.38;;;;;;;;;;5055188;28;20024;-65
2023/09/11 00:59:48;;;;;;;17.45;13.40;;;;;;;;;;5057723;28;20051;-65
2023/09/11 01:02:15;;;;;;;21.30;12.57;;;;;;;;;;5056117;28;20340;-65
2023/09/11 01:04:44;;;;;;;16.40;13.18;;;;;;;;;;5057828;28;21733;-65
2023/09/11 01:07:13;;;;;;;22.33;13.90;;;;;;;;;;5057349;28;20090;-65
2023/09/11 01:09:40;;;;;;;16.40;12.10;;;;;;;;;;5057519;28;20039;-65
2023/09/11 01:12:06;;;;;;;17.77;12.95;;;;;;;;;;5056903;28;20039;-65
2023/09/11 01:14:33;;;;;;;17.88;12.30;;;;;;;;;;5057183;28;20028;-65
2023/09/11 01:17:32;;;;;;;19.58;13.65;;;;;;;;;;5057231;28;20032;-65
2023/09/11 01:20:21;;;;;;;18.15;12.82;;;;;;;;;;5021518;28;20036;-65
2023/09/11 01:23:02;;;;;;;17.50;11.77;;;;;;;;;;5057061;28;20020;-65
2023/09/11 01:25:28;;;;;;;21.40;13.25;;;;;;;;;;5057270;28;20024;-65
2023/09/11 01:27:58;;;;;;;19.13;13.27;;;;;;;;;;5056898;28;20032;-65
2023/09/11 01:30:25;;;;;;;18.90;11.88;;;;;;;;;;5056916;28;20043;-65
2023/09/11 01:32:52;;;;;;;18.77;12.40;;;;;;;;;;5056993;28;20024;-65
2023/09/11 01:35:19;;;;;;;22.48;13.93;;;;;;;;;;5056119;28;20134;-65
2023/09/11 01:37:45;;;;;;;19.17;13.65;;;;;;;;;;5056892;28;20036;-65
2023/09/11 01:40:11;;;;;;;23.58;12.88;;;;;;;;;;5056646;28;20039;-65
2023/09/11 01:42:43;;;;;;;23.35;12.68;;;;;;;;;;5057718;28;20040;-65
2023/09/11 01:45:13;;;;;;;17.70;11.95;;;;;;;;;;5056429;28;20032;-65
2023/09/11 01:47:39;;;;;;;21.00;13.68;;;;;;;;;;5056430;28;20486;-65
2023/09/11 01:50:06;;;;;;;19.65;11.68;;;;;;;;;;5055628;28;20189;-65
2023/09/11 01:52:33;;;;;;;18.02;11.85;;;;;;;;;;5056171;28;20070;-65
2023/09/11 01:55:00;;;;;;;20.48;12.40;;;;;;;;;;5056305;28;21882;-65
2023/09/11 01:57:27;;;;;;;22.95;13.50;;;;;;;;;;5056577;28;20147;-65
2023/09/11 01:59:53;;;;;;;25.13;12.48;;;;;;;;;;5052722;28;20050;-65
2023/09/11 02:02:19;;;;;;;22.55;13.25;;;;;;;;;;5055312;28;20989;-65
2023/09/11 02:04:46;;;;;;;19.50;12.38;;;;;;;;;;5055628;28;20053;-65
2023/09/11 02:07:12;;;;;;;18.85;13.07;;;;;;;;;;5055016;28;20058;-65
2023/09/11 02:09:38;;;;;;;19.02;13.55;;;;;;;;;;5055045;28;20036;-65
2023/09/11 02:12:04;;;;;;;17.38;12.30;;;;;;;;;;5055455;28;20037;-65
2023/09/11 02:14:30;;;;;;;17.75;12.15;;;;;;;;;;5056242;28;20028;-65
2023/09/11 02:17:02;;;;;;;21.92;12.70;;;;;;;;;;5056741;28;20028;-65
2023/09/11 02:19:28;;;;;;;20.67;13.05;;;;;;;;;;5055788;28;20477;-65
2023/09/11 02:21:54;;;;;;;18.63;12.02;;;;;;;;;;5053988;28;20028;-65
2023/09/11 02:24:20;;;;;;;22.55;12.55;;;;;;;;;;5057650;28;21023;-65
2023/09/11 02:26:47;;;;;;;19.15;12.48;;;;;;;;;;5055072;28;20091;-65
2023/09/11 02:29:13;;;;;;;18.50;12.15;;;;;;;;;;5056707;28;20043;-65
2023/09/11 02:31:39;;;;;;;27.00;14.02;;;;;;;;;;5055923;28;20028;-65
2023/09/11 02:34:05;;;;;;;21.02;13.52;;;;;;;;;;5056203;28;20036;-65
2023/09/11 02:36:31;;;;;;;21.67;12.50;;;;;;;;;;5055024;28;20272;-65
2023/09/11 02:38:57;;;;;;;19.48;12.60;;;;;;;;;;5055565;28;20060;-65
2023/09/11 02:41:23;;;;;;;25.00;12.82;;;;;;;;;;5056590;28;20084;-64
2023/09/11 02:43:49;;;;;;;21.27;12.50;;;;;;;;;;5055925;28;20020;-65
2023/09/11 02:46:15;;;;;;;18.42;13.15;;;;;;;;;;5055237;28;20044;-65
2023/09/11 02:48:45;;;;;;;23.55;12.57;;;;;;;;;;5055932;28;20032;-65
2023/09/11 02:51:11;;;;;;;22.10;14.38;;;;;;;;;;5055695;28;20115;-65
2023/09/11 02:53:38;;;;;;;23.05;12.65;;;;;;;;;;5054117;28;20028;-65
2023/09/11 02:56:04;;;;;;;23.77;14.23;;;;;;;;;;5055695;28;20054;-65
2023/09/11 02:58:30;;;;;;;20.88;12.70;;;;;;;;;;5056389;28;20032;-65
2023/09/11 03:01:02;;;;;;;21.92;12.82;;;;;;;;;;5054922;28;21370;-65
2023/09/11 03:03:28;;;;;;;20.48;12.43;;;;;;;;;;5054946;28;20028;-65
2023/09/11 03:05:58;;;;;;;19.45;12.02;;;;;;;;;;5053506;28;20036;-65
2023/09/11 03:08:24;;;;;;;20.20;12.15;;;;;;;;;;5055859;28;20034;-65
2023/09/11 03:10:50;;;;;;;20.70;12.43;;;;;;;;;;5054535;28;20036;-65
2023/09/11 03:13:16;;;;;;;21.05;12.48;;;;;;;;;;5054485;28;20036;-65
2023/09/11 03:15:42;;;;;;;24.45;12.50;;;;;;;;;;5053524;28;20032;-65
2023/09/11 03:18:09;;;;;;;27.33;12.80;;;;;;;;;;5053458;28;20036;-65
2023/09/11 03:20:35;;;;;;;18.27;12.43;;;;;;;;;;5055397;28;20031;-65
2023/09/11 03:23:01;;;;;;;20.35;13.15;;;;;;;;;;5055125;28;20040;-65
2023/09/11 03:25:27;;;;;;;24.63;12.85;;;;;;;;;;5055056;28;20165;-65
2023/09/11 03:27:54;;;;;;;16.15;11.70;;;;;;;;;;5071200;28;20032;-65
2023/09/11 03:30:20;;;;;;;19.58;12.95;;;;;;;;;;5054696;28;20036;-65
2023/09/11 03:32:46;;;;;;;24.17;12.43;;;;;;;;;;5055970;28;21385;-65
2023/09/11 03:35:12;;;;;;;19.08;13.02;;;;;;;;;;5053431;28;20043;-65
2023/09/11 03:37:38;;;;;;;21.42;12.18;;;;;;;;;;5054687;28;20063;-65
2023/09/11 03:40:07;;;;;;;26.48;12.88;;;;;;;;;;5054781;28;20483;-65
2023/09/11 03:42:34;;;;;;;23.05;12.43;;;;;;;;;;5054700;28;20041;-71
2023/09/11 03:45:00;;;;;;;25.00;12.95;;;;;;;;;;5053551;28;20032;-71
2023/09/11 03:47:26;;;;;;;19.85;12.95;;;;;;;;;;5054034;28;20032;-70
2023/09/11 03:49:52;;;;;;;21.98;13.45;;;;;;;;;;5054077;28;20044;-71
2023/09/11 03:52:18;;;;;;;20.50;12.63;;;;;;;;;;5053993;28;20707;-71
2023/09/11 03:54:45;;;;;;;25.73;13.95;;;;;;;;;;5054365;28;20093;-70
2023/09/11 03:57:11;;;;;;;25.05;13.85;;;;;;;;;;5054731;28;20043;-71
2023/09/11 03:59:37;;;;;;;21.85;12.55;;;;;;;;;;5054652;28;20036;-71
2023/09/11 04:02:03;;;;;;;20.13;13.07;;;;;;;;;;5054291;28;20043;-71
2023/09/11 04:04:29;;;;;;;20.17;13.95;;;;;;;;;;5053362;28;20730;-71
2023/09/11 04:06:55;;;;;;;23.23;12.98;;;;;;;;;;5053183;28;20158;-70
2023/09/11 04:09:21;;;;;;;23.13;13.20;;;;;;;;;;5052764;28;20157;-70
2023/09/11 04:11:48;;;;;;;22.55;12.55;;;;;;;;;;5051595;28;20020;-71
2023/09/11 04:14:14;;;;;;;17.85;12.07;;;;;;;;;;5052197;28;20619;-71
2023/09/11 04:16:40;;;;;;;27.88;13.25;;;;;;;;;;5049504;28;20037;-71
2023/09/11 04:19:07;;;;;;;17.98;12.93;;;;;;;;;;5053244;28;20456;-71
2023/09/11 04:21:33;;;;;;;20.00;12.77;;;;;;;;;;5053285;28;20072;-71
2023/09/11 04:23:59;;;;;;;25.27;12.35;;;;;;;;;;5053936;28;20402;-71
2023/09/11 04:26:25;;;;;;;19.08;12.13;;;;;;;;;;5055409;28;20050;-71
2023/09/11 04:28:51;;;;;;;21.08;13.00;;;;;;;;;;5058018;28;20039;-71
2023/09/11 04:31:17;;;;;;;20.85;12.73;;;;;;;;;;5058307;28;20028;-71
2023/09/11 04:33:44;;;;;;;18.40;13.18;;;;;;;;;;5059321;28;20041;-70
2023/09/11 04:36:11;;;;;;;21.65;11.82;;;;;;;;;;5056791;28;20032;-71
2023/09/11 04:38:37;;;;;;;20.67;12.30;;;;;;;;;;5058506;28;20048;-71
2023/09/11 04:41:03;;;;;;;25.08;12.98;;;;;;;;;;5057671;28;20032;-71
2023/09/11 04:43:29;;;;;;;19.52;13.27;;;;;;;;;;5058645;28;20593;-71
2023/09/11 04:45:55;;;;;;;18.02;12.57;;;;;;;;;;5057685;28;20032;-71
2023/09/11 04:48:22;;;;;;;23.42;13.48;;;;;;;;;;5058314;28;21600;-70
2023/09/11 04:50:48;;;;;;;25.80;13.38;;;;;;;;;;5057690;28;20163;-71
2023/09/11 04:53:14;;;;;;;19.52;12.35;;;;;;;;;;5057962;28;21733;-70
2023/09/11 04:55:40;;;;;;;20.77;12.57;;;;;;;;;;5057518;28;21035;-71
2023/09/11 04:58:06;;;;;;;21.38;13.07;;;;;;;;;;5058643;28;20079;-70
2023/09/11 05:00:32;;;;;;;24.05;13.70;;;;;;;;;;5057262;28;20038;-70
2023/09/11 05:02:58;;;;;;;20.73;12.88;;;;;;;;;;5056813;28;20027;-70
2023/09/11 05:05:25;;;;;;;19.38;12.52;;;;;;;;;;5056620;28;20040;-71
2023/09/11 05:07:51;;;;;;;22.55;13.10;;;;;;;;;;5056266;28;20519;-71
2023/09/11 05:10:18;;;;;;;24.88;11.88;;;;;;;;;;5056716;28;20172;-70
2023/09/11 05:12:44;;;;;;;20.80;12.13;;;;;;;;;;5057622;28;20030;-71
2023/09/11 05:15:10;;;;;;;23.05;13.10;;;;;;;;;;5056632;28;20065;-70
2023/09/11 05:17:37;;;;;;;17.17;13.32;;;;;;;;;;5057020;28;20024;-71
2023/09/11 05:20:04;;;;;;;24.35;12.52;;;;;;;;;;5057357;28;21787;-70
2023/09/11 05:22:30;;;;;;;25.33;12.63;;;;;;;;;;5057690;28;20028;-71
2023/09/11 05:24:56;;;;;;;21.02;11.68;;;;;;;;;;5057538;28;20040;-70
2023/09/11 05:27:22;;;;;;;20.63;12.10;;;;;;;;;;5057388;28;20037;-70
2023/09/11 05:29:49;;;;;;;23.17;12.05;;;;;;;;;;5056356;28;20040;-71
2023/09/11 05:32:15;;;;;;;21.23;12.68;;;;;;;;;;5056239;28;20846;-69
2023/09/11 05:34:41;;;;;;;31.33;12.27;;;;;;;;;;5057111;28;20716;-69
2023/09/11 05:37:07;;;;;;;21.25;12.65;;;;;;;;;;5057386;28;20029;-69
2023/09/11 05:39:33;;;;;;;19.83;12.60;;;;;;;;;;5056604;28;20040;-69
2023/09/11 05:41:59;;;;;;;17.52;11.95;;;;;;;;;;5058364;28;20538;-69
2023/09/11 05:44:25;;;;;;;22.40;12.38;;;;;;;;;;5056632;28;20641;-70
2023/09/11 05:46:51;;;;;;;22.63;12.75;;;;;;;;;;5056754;28;20123;-69
2023/09/11 05:49:17;;;;;;;20.88;11.68;;;;;;;;;;5058054;28;20070;-70
2023/09/11 05:51:43;;;;;;;21.17;11.23;;;;;;;;;;5056663;28;20054;-69
2023/09/11 05:54:11;;;;;;;23.63;11.93;;;;;;;;;;5056895;28;20024;-70
2023/09/11 05:56:37;;;;;;;19.13;11.30;;;;;;;;;;5057169;28;21803;-69
2023/09/11 05:59:03;;;;;;;23.30;12.02;;;;;;;;;;5057286;28;20032;-69
2023/09/11 06:01:29;;;;;;;22.85;12.27;;;;;;;;;;5057068;28;20450;-69
2023/09/11 06:03:55;;;;;;;22.15;11.02;;;;;;;;;;5073888;28;20028;-69
2023/09/11 06:06:21;;;;;;;22.92;12.05;;;;;;;;;;5056455;28;20032;-69
2023/09/11 06:08:47;;;;;;;22.27;12.02;;;;;;;;;;5055028;28;20063;-70
2023/09/11 06:11:16;;;;;;;20.40;12.02;;;;;;;;;;5056630;28;20672;-70
2023/09/11 06:13:42;;;;;;;28.52;12.73;;;;;;;;;;5055685;28;20047;-70
2023/09/11 06:16:08;;;;;;;27.65;12.55;;;;;;;;;;5053870;28;20498;-69
2023/09/11 06:18:37;;;;;;;25.13;12.40;;;;;;;;;;5054970;28;20028;-70
2023/09/11 06:21:03;;;;;;;23.52;11.55;;;;;;;;;;5054538;28;20035;-69
2023/09/11 06:23:29;;;;;;;21.88;12.48;;;;;;;;;;5054023;28;20046;-70
2023/09/11 06:25:55;;;;;;;20.05;11.68;;;;;;;;;;5054742;28;20823;-69
2023/09/11 06:28:21;;;;;;;23.70;11.38;;;;;;;;;;5055369;28;20659;-70
2023/09/11 06:30:47;;;;;;;18.90;11.98;;;;;;;;;;5056817;28;20033;-69
2023/09/11 06:33:13;;;;;;;23.08;11.82;;;;;;;;;;5055350;28;20024;-69
2023/09/11 06:35:39;;;;;;;19.33;12.00;;;;;;;;;;5056096;28;20116;-69
2023/09/11 06:38:05;;;;;;;24.27;12.32;;;;;;;;;;5056326;28;20253;-69
2023/09/11 06:40:32;;;;;;;18.88;11.57;;;;;;;;;;5056401;28;20032;-69
2023/09/11 06:42:58;;;;;;;21.67;11.50;;;;;;;;;;5054577;28;20061;-69
2023/09/11 06:45:24;;;;;;;24.10;12.63;;;;;;;;;;5055125;28;20028;-69
2023/09/11 06:47:50;;;;;;;23.50;13.00;;;;;;;;;;5056799;28;20084;-69
2023/09/11 06:50:16;;;;;;;23.23;12.63;;;;;;;;;;5055126;28;20671;-69
2023/09/11 06:52:42;;;;;;;23.70;11.60;;;;;;;;;;5055577;28;20068;-69
2023/09/11 06:55:08;;;;;;;23.08;12.32;;;;;;;;;;5055779;28;20036;-69
2023/09/11 06:57:34;;;;;;;28.65;12.43;;;;;;;;;;5055990;28;20069;-69
2023/09/11 07:00:01;;;;;;;26.75;12.95;;;;;;;;;;5056332;28;20525;-69
2023/09/11 07:02:27;;;;;;;21.70;11.43;;;;;;;;;;5056896;28;20044;-69
2023/09/11 07:04:53;;;;;;;27.33;13.27;;;;;;;;;;5056078;28;20036;-69
2023/09/11 07:07:19;;;;;;;22.20;11.27;;;;;;;;;;5055812;28;20085;-69
2023/09/11 07:09:47;;;;;;;20.38;11.88;;;;;;;;;;5055027;28;20036;-69
2023/09/11 07:12:14;;;;;;;20.45;11.05;;;;;;;;;;5055336;28;20043;-69
2023/09/11 07:14:40;;;;;;;19.23;11.63;;;;;;;;;;5055378;28;20028;-70
2023/09/11 07:17:07;;;;;;;21.27;10.70;;;;;;;;;;5054707;28;21017;-69
2023/09/11 07:19:33;;;;;;;23.08;12.43;;;;;;;;;;5056672;28;20121;-69
2023/09/11 07:21:59;;;;;;;20.60;11.52;;;;;;;;;;5053899;28;20040;-69
2023/09/11 07:24:25;;;;;;;20.27;11.30;;;;;;;;;;5055157;28;20036;-69
2023/09/11 07:26:51;;;;;;;21.63;11.13;;;;;;;;;;5055585;28;21034;-69
2023/09/11 07:29:17;;;;;;;21.77;11.80;;;;;;;;;;5056711;28;21015;-69
2023/09/11 07:31:44;;;;;;;24.55;13.20;;;;;;;;;;5056823;28;20714;-69
2023/09/11 07:34:10;;;;;;;26.90;13.30;;;;;;;;;;5056833;28;20097;-69
2023/09/11 07:36:36;;;;;;;21.05;12.38;;;;;;;;;;5054363;28;20155;-70
2023/09/11 07:39:03;;;;;;;24.02;12.70;;;;;;;;;;5054327;28;20048;-69
2023/09/11 07:41:29;;;;;;;19.77;11.50;;;;;;;;;;5056386;28;20032;-69
2023/09/11 07:43:58;;;;;;;16.48;10.48;;;;;;;;;;5055256;28;20029;-70
2023/09/11 07:46:24;;;;;;;21.52;10.57;;;;;;;;;;5054841;28;20035;-70
2023/09/11 07:48:50;;;;;;;19.38;11.90;;;;;;;;;;5056064;28;20561;-69
2023/09/11 07:51:17;;;;;;;20.33;10.20;;;;;;;;;;5056581;28;20040;-70
2023/09/11 07:53:43;;;;;;;23.95;11.13;;;;;;;;;;5055146;28;20028;-70
2023/09/11 07:56:13;;;;;;;20.42;10.73;;;;;;;;;;5055434;28;20113;-70
2023/09/11 07:58:39;;;;;;;20.20;11.05;;;;;;;;;;5055136;28;20032;-69
2023/09/11 08:01:05;;;;;;;20.90;10.55;;;;;;;;;;5055430;28;20056;-69
2023/09/11 08:03:35;;;;;;;17.02;10.48;;;;;;;;;;5056645;28;20028;-65
2023/09/11 08:06:01;;;;;;;19.30;10.25;;;;;;;;;;5058861;28;20031;-65
2023/09/11 08:08:28;;;;;;;13.90;10.05;;;;;;;;;;5059408;28;20378;-65
2023/09/11 08:10:54;;;;;;;20.50;10.93;;;;;;;;;;5058853;28;20032;-65
2023/09/11 08:13:20;;;;;;;24.77;10.65;;;;;;;;;;5060284;28;20824;-65
2023/09/11 08:15:46;;;;;;;14.77;9.27;;;;;;;;;;5060560;28;20114;-65
2023/09/11 08:18:12;;;;;;;20.05;9.23;;;;;;;;;;5058470;28;20036;-65
2023/09/11 08:20:38;;;;;;;17.60;9.75;;;;;;;;;;5059542;28;20035;-65
2023/09/11 08:23:04;;;;;;;13.80;8.13;;;;;;;;;;5057071;28;20035;-65
2023/09/11 08:25:30;;;;;;;21.85;9.07;;;;;;;;;;5056952;28;20032;-65
2023/09/11 08:27:56;;;;;;;17.80;9.13;;;;;;;;;;5057093;28;20125;-65
2023/09/11 08:30:23;;;;;;;16.92;8.82;;;;;;;;;;5058493;28;20036;-65
2023/09/11 08:32:50;;;;;;;19.30;9.48;;;;;;;;;;5057405;28;21130;-65
2023/09/11 08:35:16;;;;;;;14.30;8.30;;;;;;;;;;5057926;28;21040;-65
2023/09/11 08:37:42;;;;;;;18.42;8.93;;;;;;;;;;5055843;28;20051;-65
2023/09/11 08:40:09;;;;;;;12.02;7.63;;;;;;;;;;5057829;28;20133;-65
2023/09/11 08:42:35;;;;;;;19.88;8.27;;;;;;;;;;5057823;28;20716;-65
2023/09/11 08:45:01;;;;;;;15.80;8.32;;;;;;;;;;5057843;28;20487;-65
2023/09/11 08:47:30;;;;;;;17.80;7.68;;;;;;;;;;5058379;28;20080;-65
2023/09/11 08:49:58;;;;;;;16.63;8.65;;;;;;;;;;5058380;28;20039;-65
2023/09/11 08:52:28;;;;;;;17.73;8.25;;;;;;;;;;5058510;28;20016;-65
2023/09/11 08:54:56;;;;;;;15.57;8.05;;;;;;;;;;5058812;28;20028;-65
2023/09/11 08:57:24;;;;;;;13.55;7.70;;;;;;;;;;5058693;28;20024;-65
2023/09/11 08:59:52;;;;;;;21.98;8.15;;;;;;;;;;5057769;28;20950;-65
2023/09/11 09:02:20;;;;;;;16.23;8.20;;;;;;;;;;5059064;28;20134;-65
2023/09/11 09:04:46;;;;;;;14.07;8.38;;;;;;;;;;5058047;28;20449;-65
2023/09/11 09:07:13;;;;;;;17.92;8.43;;;;;;;;;;5058408;28;20032;-65
2023/09/11 09:09:40;;;;;;;15.52;8.23;;;;;;;;;;5057814;28;20041;-65
2023/09/11 09:12:06;;;;;;;15.15;8.68;;;;;;;;;;5058398;28;20036;-65
2023/09/11 09:14:32;;;;;;;16.17;8.98;;;;;;;;;;5056502;28;20039;-65
2023/09/11 09:17:01;;;;;;;12.35;7.85;;;;;;;;;;5058470;28;21917;-65
2023/09/11 09:19:27;;;;;;;17.73;8.60;;;;;;;;;;5057563;28;20153;-65
2023/09/11 09:22:02;;;;;;;13.73;7.78;;;;;;;;;;5058801;28;20032;-65
2023/09/11 09:24:28;;;;;;;13.38;8.45;;;;;;;;;;5058141;28;20491;-65
2023/09/11 09:27:01;;;;;;;18.30;9.20;;;;;;;;;;5058521;28;20040;-65
2023/09/11 09:29:27;;;;;;;;;;;;;;;;;;5059124;28;20028;-65
2023/09/11 09:31:53;;;;;;;11.93;7.25;;;;;;;;;;5058441;28;20573;-65
2023/09/11 09:34:19;;;;;;;15.73;8.60;;;;;;;;;;5058011;28;20024;-65
2023/09/11 09:36:49;;;;;;;12.45;8.57;;;;;;;;;;5052663;28;20479;-65
2023/09/11 09:39:15;;;;;;;17.27;9.63;;;;;;;;;;5057239;28;20119;-65
2023/09/11 09:41:52;;;;;;;14.93;8.82;;;;;;;;;;5057916;28;20031;-65
2023/09/11 09:44:34;;;;;;;16.95;8.82;;;;;;;;;;5057942;28;20207;-65
2023/09/11 09:47:16;;;;;;;15.00;8.95;;;;;;;;;;5058140;28;20028;-65
2023/09/11 09:49:43;;;;;;;16.45;8.65;;;;;;;;;;5057033;28;21804;-65
2023/09/11 09:52:13;;;;;;;18.92;8.95;;;;;;;;;;5057660;28;20830;-65
2023/09/11 09:54:43;;;;;;;12.77;7.88;;;;;;;;;;5057721;28;20025;-65
2023/09/11 09:57:10;;;;;;;15.48;8.98;;;;;;;;;;5058009;28;20059;-65
2023/09/11 09:59:36;;;;;;;18.52;8.95;;;;;;;;;;5058255;28;20032;-65
2023/09/11 10:02:03;;;;;;;14.68;8.68;;;;;;;;;;5057354;28;20032;-65
2023/09/11 10:04:31;;;;;;;13.43;8.38;;;;;;;;;;5058316;28;20024;-65
2023/09/11 10:06:58;;;;;;;12.98;7.38;;;;;;;;;;5055582;28;20039;-65
2023/09/11 10:09:24;;;;;;;13.75;8.90;;;;;;;;;;5056794;28;20917;-65
2023/09/11 10:11:51;;;;;;;17.23;8.60;;;;;;;;;;5057840;28;20475;-65
2023/09/11 10:14:18;;;;;;;14.30;9.00;;;;;;;;;;5057511;28;21728;-65
2023/09/11 10:16:45;;;;;;;13.93;9.40;;;;;;;;;;5057572;28;20632;-65
2023/09/11 10:19:12;;;;;;;15.55;10.15;;;;;;;;;;5057193;28;21781;-65
2023/09/11 10:21:38;;;;;;;15.45;9.32;;;;;;;;;;5057082;28;20403;-65
2023/09/11 10:24:05;;;;;;;16.30;9.60;;;;;;;;;;5057655;28;20039;-65
2023/09/11 10:26:59;;;;;;;18.50;11.10;;;;;;;;;;5056040;28;20032;-65
2023/09/11 10:29:25;;;;;;;;;;;;;;;;;;5055332;28;20044;-65
2023/09/11 10:31:59;;;;;;;15.48;9.75;;;;;;;;;;5057404;28;19926;-65
2023/09/11 10:34:26;;;;;;;19.77;10.45;;;;;;;;;;5056105;28;20836;-65
2023/09/11 10:36:56;;;;;;;14.77;10.52;;;;;;;;;;5054365;28;20517;-65
2023/09/11 10:39:23;;;;;;;20.38;11.15;;;;;;;;;;5053881;28;20175;-65
2023/09/11 10:41:49;;;;;;;17.77;11.45;;;;;;;;;;5054513;28;20391;-65
2023/09/11 10:44:16;;;;;;;18.00;11.10;;;;;;;;;;5054007;28;20033;-65
2023/09/11 10:46:48;;;;;;;17.67;11.25;;;;;;;;;;5054231;28;20108;-65
2023/09/11 10:49:17;;;;;;;19.63;11.02;;;;;;;;;;5055778;28;20720;-65
2023/09/11 10:51:45;;;;;;;17.48;9.95;;;;;;;;;;5056522;28;20300;-65
2023/09/11 10:54:12;;;;;;;16.85;10.32;;;;;;;;;;5055367;28;20855;-65
2023/09/11 10:56:38;;;;;;;19.30;9.07;;;;;;;;;;5056328;28;20032;-65
2023/09/11 10:59:05;;;;;;;19.42;10.75;;;;;;;;;;5054879;28;20024;-65
2023/09/11 11:01:34;;;;;;;15.30;9.10;;;;;;;;;;5055907;28;20032;-65
2023/09/11 11:04:04;;;;;;;16.00;8.90;;;;;;;;;;5052226;28;20042;-65
2023/09/11 11:06:31;;;;;;;14.75;9.85;;;;;;;;;;5056333;28;20040;-65
2023/09/11 11:08:58;;;;;;;16.27;10.20;;;;;;;;;;5056383;28;20031;-65
2023/09/11 11:11:30;;;;;;;18.65;9.75;;;;;;;;;;5055413;28;20419;-65
2023/09/11 11:14:11;;;;;;;14.90;9.65;;;;;;;;;;5056736;28;21479;-65
2023/09/11 11:16:38;;;;;;;16.73;9.50;;;;;;;;;;5056282;28;20032;-65
2023/09/11 11:19:05;;;;;;;13.57;9.38;;;;;;;;;;5056197;28;20055;-65
2023/09/11 11:21:40;;;;;;;18.65;9.10;;;;;;;;;;5055967;28;20502;-65
2023/09/11 11:24:09;;;;;;;21.02;10.52;;;;;;;;;;5056033;28;20073;-65
2023/09/11 11:26:42;;;;;;;16.10;9.55;;;;;;;;;;5055063;28;20040;-65
2023/09/11 11:29:08;;;;;;;20.58;10.07;;;;;;;;;;5055897;28;20032;-65
2023/09/11 11:31:35;;;;;;;16.45;9.75;;;;;;;;;;5056155;28;20036;-65
2023/09/11 11:34:02;;;;;;;14.45;10.50;;;;;;;;;;5056157;28;21814;-65
2023/09/11 11:36:29;;;;;;;14.27;9.75;;;;;;;;;;5055985;28;20034;-65
2023/09/11 11:38:56;;;;;;;13.75;8.82;;;;;;;;;;5059914;28;20044;-65
2023/09/11 11:41:22;;;;;;;12.80;7.90;;;;;;;;;;5060047;28;20036;-65
2023/09/11 11:43:49;;;;;;;13.95;8.63;;;;;;;;;;5059563;28;20489;-65
2023/09/11 11:46:15;;;;;;;16.00;9.80;;;;;;;;;;5057978;28;20028;-65
2023/09/11 11:48:42;;;;;;;17.42;11.30;;;;;;;;;;5059233;28;20120;-65
2023/09/11 11:51:08;;;;;;;20.60;10.00;;;;;;;;;;5060001;28;20089;-65
2023/09/11 11:53:35;;;;;;;13.77;9.23;;;;;;;;;;5058867;28;20024;-65
2023/09/11 11:56:05;;;;;;;13.90;9.60;;;;;;;;;;5057597;28;20037;-65
2023/09/11 11:58:31;;;;;;;12.02;8.38;;;;;;;;;;5058032;28;20071;-65
2023/09/11 12:01:01;;;;;;;14.40;7.38;;;;;;;;;;5059270;28;20036;-65
2023/09/11 12:03:29;;;;;;;18.10;6.50;;;;;;;;;;5059666;28;20270;-65
2023/09/11 12:05:55;;;;;;;11.00;5.70;;;;;;;;;;5058935;28;20028;-65
2023/09/11 12:08:23;;;;;;;14.90;5.65;;;;;;;;;;5059239;28;20892;-65
2023/09/11 12:10:49;;;;;;;10.02;5.57;;;;;;;;;;5058814;28;20167;-65
2023/09/11 12:13:19;;;;;;;9.65;4.88;;;;;;;;;;5056850;28;20118;-65
2023/09/11 12:15:52;;;;;;;10.38;5.78;;;;;;;;;;5059183;28;20052;-65
2023/09/11 12:18:19;;;;;;;9.25;5.57;;;;;;;;;;5058924;28;20254;-65
2023/09/11 12:21:04;;;;;;;8.65;4.75;;;;;;;;;;5059391;28;20032;-65
2023/09/11 12:23:30;;;;;;;9.93;5.60;;;;;;;;;;5059039;28;20050;-65
2023/09/11 12:25:56;;;;;;;9.93;5.13;;;;;;;;;;5059343;28;20166;-65
2023/09/11 12:28:23;;;;;;;9.82;5.18;;;;;;;;;;5059125;28;20032;-65
2023/09/11 12:30:50;;;;;;;10.73;5.80;;;;;;;;;;5058379;28;20041;-65
2023/09/11 12:33:17;;;;;;;11.10;5.85;;;;;;;;;;5058991;28;20066;-65
2023/09/11 12:35:43;;;;;;;16.65;6.60;;;;;;;;;;5058753;28;20527;-65
2023/09/11 12:38:12;;;;;;;12.02;5.78;;;;;;;;;;5058920;28;20090;-65
2023/09/11 12:40:39;;;;;;;12.50;6.20;;;;;;;;;;5057778;28;20067;-65
2023/09/11 12:43:05;;;;;;;11.93;6.63;;;;;;;;;;5058343;28;20032;-65
2023/09/11 12:45:33;;;;;;;10.98;5.63;;;;;;;;;;5056295;28;20113;-65
2023/09/11 12:47:59;;;;;;;9.60;4.07;;;;;;;;;;5056263;28;20073;-65
2023/09/11 12:50:26;;;;;;;7.68;3.80;;;;;;;;;;5057143;28;20040;-66
2023/09/11 12:52:52;;;;;;;6.68;3.53;;;;;;;;;;5056897;28;20059;-65
2023/09/11 12:55:18;;;;;;;8.20;4.05;;;;;;;;;;5057100;28;20119;-65
2023/09/11 12:57:44;;;;;;;11.68;3.80;;;;;;;;;;5057083;28;21810;-65
2023/09/11 13:00:11;;;;;;;6.03;3.28;;;;;;;;;;5058478;28;20044;-65
2023/09/11 13:02:37;;;;;;;15.48;3.92;;;;;;;;;;5058065;28;20028;-65
2023/09/11 13:05:07;;;;;;;7.00;3.33;;;;;;;;;;5058250;28;20040;-65
2023/09/11 13:07:35;;;;;;;7.35;3.60;;;;;;;;;;5059043;28;20402;-65
2023/09/11 13:10:01;;;;;;;8.30;3.70;;;;;;;;;;5058681;28;20048;-65
2023/09/11 13:12:27;;;;;;;10.20;4.03;;;;;;;;;;5059253;28;20513;-65
2023/09/11 13:14:53;;;;;;;9.10;4.18;;;;;;;;;;5059903;28;20407;-65
2023/09/11 13:17:19;;;;;;;8.77;4.00;;;;;;;;;;5059554;28;20031;-65
2023/09/11 13:19:46;;;;;;;7.97;3.97;;;;;;;;;;5057470;28;20028;-65
2023/09/11 13:22:12;;;;;;;10.40;4.07;;;;;;;;;;5059668;28;20597;-65
2023/09/11 13:24:38;;;;;;;8.75;3.80;;;;;;;;;;5058261;28;20098;-65
2023/09/11 13:27:06;;;;;;;8.77;4.25;;;;;;;;;;5058776;28;21348;-65
2023/09/11 13:29:32;;;;;;;11.45;4.03;;;;;;;;;;5058695;28;20150;-65
2023/09/11 13:31:58;;;;;;;7.75;4.38;;;;;;;;;;5058952;28;20036;-65
2023/09/11 13:34:24;;;;;;;7.65;4.20;;;;;;;;;;5057718;28;21111;-65
2023/09/11 13:36:53;;;;;;;7.82;4.60;;;;;;;;;;5057827;28;20036;-65
2023/09/11 13:39:19;;;;;;;12.10;4.85;;;;;;;;;;5056885;28;20577;-64
2023/09/11 13:41:45;;;;;;;8.52;4.30;;;;;;;;;;5056997;28;20149;-65
2023/09/11 13:44:12;;;;;;;6.43;4.00;;;;;;;;;;5056177;28;20029;-65
2023/09/11 13:46:38;;;;;;;11.77;4.50;;;;;;;;;;5057024;28;20687;-65
2023/09/11 13:49:04;;;;;;;9.30;3.70;;;;;;;;;;5056606;28;20086;-65
2023/09/11 13:51:30;;;;;;;8.48;3.85;;;;;;;;;;5056567;28;20083;-65
2023/09/11 13:53:56;;;;;;;8.48;3.85;;;;;;;;;;5056470;28;20039;-65
2023/09/11 13:56:22;;;;;;;8.25;4.38;;;;;;;;;;5055285;28;20789;-65
2023/09/11 13:58:48;;;;;;;7.60;4.25;;;;;;;;;;5056311;28;20028;-65
2023/09/11 14:01:14;;;;;;;9.55;4.65;;;;;;;;;;5056246;28;20031;-65
2023/09/11 14:03:41;;;;;;;10.18;4.68;;;;;;;;;;5056824;28;21039;-65
2023/09/11 14:06:07;;;;;;;9.48;5.25;;;;;;;;;;5058648;28;20659;-65
2023/09/11 14:08:33;;;;;;;10.13;4.82;;;;;;;;;;5060254;28;20076;-65
2023/09/11 14:10:59;;;;;;;12.07;6.32;;;;;;;;;;5061039;28;20109;-65
2023/09/11 14:13:26;;;;;;;11.85;5.82;;;;;;;;;;5062469;28;20092;-65
2023/09/11 14:15:52;;;;;;;8.95;5.22;;;;;;;;;;5063552;28;20036;-65
2023/09/11 14:18:18;;;;;;;10.00;5.03;;;;;;;;;;5062649;28;20144;-65
2023/09/11 14:20:44;;;;;;;9.90;4.65;;;;;;;;;;5062425;28;20074;-65
2023/09/11 14:23:10;;;;;;;12.38;5.13;;;;;;;;;;5063401;28;20037;-65